sensor_id;sensor_type;location;lat;lon;timestamp;P1;durP1;ratioP1;P2;durP2;ratioP2
7541;SDS011;3812;50.006;8.230;2022-11-15T00:01:24;23.67;;;15.97;;
7541;SDS011;3812;50.006;8.230;2022-11-15T00:04:11;21.10;;;15.37;;
7541;SDS011;3812;50.006;8.230;2022-11-15T00:06:56;19.83;;;14.53;;
7541;SDS011;3812;50.006;8.230;2022-11-15T00:09:42;22.73;;;15.07;;
7541;SDS011;3812;50.006;8.230;2022-11-15T00:12:27;21.90;;;15.73;;
7541;SDS011;3812;50.006;8.230;2022-11-15T00:15:13;23.63;;;15.40;;
7541;SDS011;3812;50.006;8.230;2022-11-15T00:17:59;19.13;;;14.13;;
7541;SDS011;3812;50.006;8.230;2022-11-15T00:20:45;20.77;;;14.40;;
7541;SDS011;3812;50.006;8.230;2022-11-15T00:23:32;20.20;;;15.30;;
7541;SDS011;3812;50.006;8.230;2022-11-15T00:26:18;21.63;;;14.80;;
7541;SDS011;3812;50.006;8.230;2022-11-15T00:29:03;19.63;;;14.37;;
7541;SDS011;3812;50.006;8.230;2022-11-15T00:31:49;21.57;;;15.03;;
7541;SDS011;3812;50.006;8.230;2022-11-15T00:34:35;18.77;;;14.37;;
7541;SDS011;3812;50.006;8.230;2022-11-15T00:37:22;20.53;;;14.77;;
7541;SDS011;3812;50.006;8.230;2022-11-15T00:40:08;20.80;;;14.43;;
7541;SDS011;3812;50.006;8.230;2022-11-15T00:42:56;23.77;;;16.17;;
7541;SDS011;3812;50.006;8.230;2022-11-15T00:45:41;24.10;;;16.33;;
7541;SDS011;3812;50.006;8.230;2022-11-15T00:48:27;24.87;;;16.60;;
7541;SDS011;3812;50.006;8.230;2022-11-15T00:51:13;25.33;;;16.67;;
7541;SDS011;3812;50.006;8.230;2022-11-15T00:54:00;21.63;;;15.07;;
7541;SDS011;3812;50.006;8.230;2022-11-15T00:56:46;25.17;;;15.83;;
7541;SDS011;3812;50.006;8.230;2022-11-15T00:59:31;19.50;;;14.17;;
7541;SDS011;3812;50.006;8.230;2022-11-15T01:02:17;21.70;;;14.57;;
7541;SDS011;3812;50.006;8.230;2022-11-15T01:05:02;20.47;;;13.87;;
7541;SDS011;3812;50.006;8.230;2022-11-15T01:07:50;18.90;;;14.37;;
7541;SDS011;3812;50.006;8.230;2022-11-15T01:10:37;21.07;;;15.40;;
7541;SDS011;3812;50.006;8.230;2022-11-15T01:13:23;21.10;;;14.60;;
7541;SDS011;3812;50.006;8.230;2022-11-15T01:16:08;19.93;;;14.13;;
7541;SDS011;3812;50.006;8.230;2022-11-15T01:18:55;20.47;;;14.17;;
7541;SDS011;3812;50.006;8.230;2022-11-15T01:21:41;21.67;;;14.23;;
7541;SDS011;3812;50.006;8.230;2022-11-15T01:24:26;20.27;;;13.93;;
7541;SDS011;3812;50.006;8.230;2022-11-15T01:27:13;21.93;;;13.83;;
7541;SDS011;3812;50.006;8.230;2022-11-15T01:29:59;20.07;;;14.00;;
7541;SDS011;3812;50.006;8.230;2022-11-15T01:32:44;20.30;;;13.17;;
7541;SDS011;3812;50.006;8.230;2022-11-15T01:35:30;18.13;;;13.43;;
7541;SDS011;3812;50.006;8.230;2022-11-15T01:38:15;17.50;;;13.80;;
7541;SDS011;3812;50.006;8.230;2022-11-15T01:41:01;16.20;;;12.67;;
7541;SDS011;3812;50.006;8.230;2022-11-15T01:43:48;16.57;;;12.20;;
7541;SDS011;3812;50.006;8.230;2022-11-15T01:46:36;17.87;;;13.63;;
7541;SDS011;3812;50.006;8.230;2022-11-15T01:49:23;16.60;;;12.67;;
7541;SDS011;3812;50.006;8.230;2022-11-15T01:52:10;19.47;;;13.33;;
7541;SDS011;3812;50.006;8.230;2022-11-15T01:55:00;19.27;;;12.37;;
7541;SDS011;3812;50.006;8.230;2022-11-15T01:57:51;16.43;;;13.33;;
7541;SDS011;3812;50.006;8.230;2022-11-15T02:00:40;18.87;;;13.37;;
7541;SDS011;3812;50.006;8.230;2022-11-15T02:03:26;19.87;;;13.53;;
7541;SDS011;3812;50.006;8.230;2022-11-15T02:06:18;16.90;;;12.93;;
7541;SDS011;3812;50.006;8.230;2022-11-15T02:09:05;20.30;;;13.60;;
7541;SDS011;3812;50.006;8.230;2022-11-15T02:11:51;17.17;;;12.90;;
7541;SDS011;3812;50.006;8.230;2022-11-15T02:14:39;19.03;;;12.70;;
7541;SDS011;3812;50.006;8.230;2022-11-15T02:17:35;17.30;;;12.37;;
7541;SDS011;3812;50.006;8.230;2022-11-15T02:20:36;18.13;;;12.67;;
7541;SDS011;3812;50.006;8.230;2022-11-15T02:30:13;19.27;;;13.97;;
7541;SDS011;3812;50.006;8.230;2022-11-15T02:33:07;20.33;;;13.50;;
7541;SDS011;3812;50.006;8.230;2022-11-15T02:36:02;19.47;;;14.23;;
7541;SDS011;3812;50.006;8.230;2022-11-15T02:38:52;22.07;;;13.70;;
7541;SDS011;3812;50.006;8.230;2022-11-15T02:41:45;18.53;;;13.17;;
7541;SDS011;3812;50.006;8.230;2022-11-15T02:44:35;17.20;;;13.37;;
7541;SDS011;3812;50.006;8.230;2022-11-15T02:47:24;16.67;;;12.70;;
7541;SDS011;3812;50.006;8.230;2022-11-15T02:50:15;19.97;;;13.50;;
7541;SDS011;3812;50.006;8.230;2022-11-15T02:53:03;20.37;;;13.67;;
7541;SDS011;3812;50.006;8.230;2022-11-15T02:55:49;22.73;;;15.17;;
7541;SDS011;3812;50.006;8.230;2022-11-15T02:58:48;20.17;;;14.77;;
7541;SDS011;3812;50.006;8.230;2022-11-15T03:01:56;21.03;;;13.53;;
7541;SDS011;3812;50.006;8.230;2022-11-15T03:04:53;20.30;;;13.43;;
7541;SDS011;3812;50.006;8.230;2022-11-15T03:07:43;20.03;;;14.20;;
7541;SDS011;3812;50.006;8.230;2022-11-15T03:10:40;21.20;;;14.93;;
7541;SDS011;3812;50.006;8.230;2022-11-15T03:13:32;20.83;;;13.43;;
7541;SDS011;3812;50.006;8.230;2022-11-15T03:16:23;19.80;;;14.03;;
7541;SDS011;3812;50.006;8.230;2022-11-15T03:19:17;19.13;;;13.90;;
7541;SDS011;3812;50.006;8.230;2022-11-15T03:22:09;21.97;;;13.80;;
7541;SDS011;3812;50.006;8.230;2022-11-15T03:25:00;20.03;;;13.60;;
7541;SDS011;3812;50.006;8.230;2022-11-15T03:27:50;21.80;;;14.30;;
7541;SDS011;3812;50.006;8.230;2022-11-15T03:30:38;19.57;;;14.03;;
7541;SDS011;3812;50.006;8.230;2022-11-15T03:33:26;17.93;;;12.70;;
7541;SDS011;3812;50.006;8.230;2022-11-15T03:36:13;22.97;;;14.23;;
7541;SDS011;3812;50.006;8.230;2022-11-15T03:39:02;19.13;;;13.57;;
7541;SDS011;3812;50.006;8.230;2022-11-15T03:41:52;17.73;;;13.83;;
7541;SDS011;3812;50.006;8.230;2022-11-15T03:44:45;21.00;;;13.33;;
7541;SDS011;3812;50.006;8.230;2022-11-15T03:47:38;19.30;;;14.23;;
7541;SDS011;3812;50.006;8.230;2022-11-15T03:50:26;19.77;;;13.47;;
7541;SDS011;3812;50.006;8.230;2022-11-15T03:53:13;21.60;;;15.03;;
7541;SDS011;3812;50.006;8.230;2022-11-15T03:56:00;21.30;;;13.27;;
7541;SDS011;3812;50.006;8.230;2022-11-15T03:58:45;18.80;;;13.30;;
7541;SDS011;3812;50.006;8.230;2022-11-15T04:01:31;20.67;;;14.10;;
7541;SDS011;3812;50.006;8.230;2022-11-15T04:04:16;18.83;;;13.83;;
7541;SDS011;3812;50.006;8.230;2022-11-15T04:07:02;20.77;;;14.47;;
7541;SDS011;3812;50.006;8.230;2022-11-15T04:09:47;19.80;;;14.17;;
7541;SDS011;3812;50.006;8.230;2022-11-15T04:12:50;19.77;;;13.50;;
7541;SDS011;3812;50.006;8.230;2022-11-15T04:15:36;17.80;;;12.97;;
7541;SDS011;3812;50.006;8.230;2022-11-15T04:18:21;20.90;;;13.83;;
7541;SDS011;3812;50.006;8.230;2022-11-15T04:21:08;18.00;;;13.37;;
7541;SDS011;3812;50.006;8.230;2022-11-15T04:24:11;18.60;;;13.17;;
7541;SDS011;3812;50.006;8.230;2022-11-15T04:26:57;17.27;;;13.40;;
7541;SDS011;3812;50.006;8.230;2022-11-15T04:29:44;17.77;;;13.20;;
7541;SDS011;3812;50.006;8.230;2022-11-15T04:32:30;16.40;;;12.30;;
7541;SDS011;3812;50.006;8.230;2022-11-15T04:35:15;17.27;;;12.23;;
7541;SDS011;3812;50.006;8.230;2022-11-15T04:38:01;18.90;;;12.20;;
7541;SDS011;3812;50.006;8.230;2022-11-15T04:40:48;16.20;;;12.13;;
7541;SDS011;3812;50.006;8.230;2022-11-15T04:43:33;16.50;;;12.03;;
7541;SDS011;3812;50.006;8.230;2022-11-15T04:46:20;17.20;;;12.67;;
7541;SDS011;3812;50.006;8.230;2022-11-15T04:49:06;16.73;;;11.67;;
7541;SDS011;3812;50.006;8.230;2022-11-15T04:51:51;17.70;;;12.20;;
7541;SDS011;3812;50.006;8.230;2022-11-15T04:54:36;15.00;;;11.20;;
7541;SDS011;3812;50.006;8.230;2022-11-15T04:57:22;16.77;;;11.53;;
7541;SDS011;3812;50.006;8.230;2022-11-15T05:00:08;15.10;;;11.20;;
7541;SDS011;3812;50.006;8.230;2022-11-15T05:02:57;14.27;;;11.27;;
7541;SDS011;3812;50.006;8.230;2022-11-15T05:06:00;16.47;;;12.90;;
7541;SDS011;3812;50.006;8.230;2022-11-15T05:08:46;16.23;;;13.07;;
7541;SDS011;3812;50.006;8.230;2022-11-15T05:11:31;16.37;;;11.50;;
7541;SDS011;3812;50.006;8.230;2022-11-15T05:14:17;15.20;;;11.73;;
7541;SDS011;3812;50.006;8.230;2022-11-15T05:17:03;17.13;;;12.33;;
7541;SDS011;3812;50.006;8.230;2022-11-15T05:19:50;16.40;;;11.67;;
7541;SDS011;3812;50.006;8.230;2022-11-15T05:22:36;15.93;;;12.73;;
7541;SDS011;3812;50.006;8.230;2022-11-15T05:25:21;18.27;;;12.77;;
7541;SDS011;3812;50.006;8.230;2022-11-15T05:28:07;14.73;;;11.67;;
7541;SDS011;3812;50.006;8.230;2022-11-15T05:30:53;17.43;;;11.53;;
7541;SDS011;3812;50.006;8.230;2022-11-15T05:33:38;13.50;;;11.43;;
7541;SDS011;3812;50.006;8.230;2022-11-15T05:36:31;16.00;;;11.90;;
7541;SDS011;3812;50.006;8.230;2022-11-15T05:39:20;15.67;;;12.50;;
7541;SDS011;3812;50.006;8.230;2022-11-15T05:42:06;18.57;;;12.13;;
7541;SDS011;3812;50.006;8.230;2022-11-15T05:44:54;16.10;;;12.57;;
7541;SDS011;3812;50.006;8.230;2022-11-15T05:47:41;18.73;;;12.13;;
7541;SDS011;3812;50.006;8.230;2022-11-15T05:50:27;16.63;;;12.07;;
7541;SDS011;3812;50.006;8.230;2022-11-15T05:53:15;17.23;;;11.33;;
7541;SDS011;3812;50.006;8.230;2022-11-15T05:56:04;20.17;;;12.57;;
7541;SDS011;3812;50.006;8.230;2022-11-15T05:58:51;14.53;;;11.60;;
7541;SDS011;3812;50.006;8.230;2022-11-15T06:01:38;14.30;;;11.60;;
7541;SDS011;3812;50.006;8.230;2022-11-15T06:04:24;17.13;;;11.60;;
7541;SDS011;3812;50.006;8.230;2022-11-15T06:07:10;15.80;;;10.90;;
7541;SDS011;3812;50.006;8.230;2022-11-15T06:09:57;16.07;;;11.70;;
7541;SDS011;3812;50.006;8.230;2022-11-15T06:12:42;14.80;;;10.50;;
7541;SDS011;3812;50.006;8.230;2022-11-15T06:15:28;15.63;;;11.53;;
7541;SDS011;3812;50.006;8.230;2022-11-15T06:18:14;13.30;;;11.17;;
7541;SDS011;3812;50.006;8.230;2022-11-15T06:20:59;14.70;;;11.10;;
7541;SDS011;3812;50.006;8.230;2022-11-15T06:23:45;14.93;;;10.70;;
7541;SDS011;3812;50.006;8.230;2022-11-15T06:26:32;16.30;;;11.30;;
7541;SDS011;3812;50.006;8.230;2022-11-15T06:29:18;13.93;;;11.37;;
7541;SDS011;3812;50.006;8.230;2022-11-15T06:32:04;15.80;;;11.07;;
7541;SDS011;3812;50.006;8.230;2022-11-15T06:34:49;13.07;;;10.23;;
7541;SDS011;3812;50.006;8.230;2022-11-15T06:37:35;15.80;;;10.73;;
7541;SDS011;3812;50.006;8.230;2022-11-15T06:40:20;17.47;;;11.43;;
7541;SDS011;3812;50.006;8.230;2022-11-15T06:43:07;16.83;;;11.57;;
7541;SDS011;3812;50.006;8.230;2022-11-15T06:45:53;13.00;;;11.07;;
7541;SDS011;3812;50.006;8.230;2022-11-15T06:48:39;14.10;;;10.90;;
7541;SDS011;3812;50.006;8.230;2022-11-15T06:51:25;13.67;;;10.33;;
7541;SDS011;3812;50.006;8.230;2022-11-15T06:54:10;14.43;;;10.57;;
7541;SDS011;3812;50.006;8.230;2022-11-15T06:56:56;12.63;;;10.53;;
7541;SDS011;3812;50.006;8.230;2022-11-15T06:59:43;14.90;;;10.50;;
7541;SDS011;3812;50.006;8.230;2022-11-15T07:02:29;16.47;;;11.20;;
7541;SDS011;3812;50.006;8.230;2022-11-15T07:05:15;14.23;;;10.07;;
7541;SDS011;3812;50.006;8.230;2022-11-15T07:08:01;12.80;;;9.47;;
7541;SDS011;3812;50.006;8.230;2022-11-15T07:10:48;19.83;;;10.70;;
7541;SDS011;3812;50.006;8.230;2022-11-15T07:13:34;15.80;;;11.60;;
7541;SDS011;3812;50.006;8.230;2022-11-15T07:16:22;15.20;;;11.00;;
7541;SDS011;3812;50.006;8.230;2022-11-15T07:19:08;19.10;;;11.03;;
7541;SDS011;3812;50.006;8.230;2022-11-15T07:21:53;16.30;;;10.33;;
7541;SDS011;3812;50.006;8.230;2022-11-15T07:24:39;14.07;;;10.40;;
7541;SDS011;3812;50.006;8.230;2022-11-15T07:27:24;14.40;;;10.20;;
7541;SDS011;3812;50.006;8.230;2022-11-15T07:30:10;12.80;;;10.33;;
7541;SDS011;3812;50.006;8.230;2022-11-15T07:32:58;13.60;;;9.90;;
7541;SDS011;3812;50.006;8.230;2022-11-15T07:35:45;14.80;;;10.60;;
7541;SDS011;3812;50.006;8.230;2022-11-15T07:38:33;13.30;;;10.33;;
7541;SDS011;3812;50.006;8.230;2022-11-15T07:41:19;15.40;;;10.90;;
7541;SDS011;3812;50.006;8.230;2022-11-15T07:44:05;14.73;;;10.90;;
7541;SDS011;3812;50.006;8.230;2022-11-15T07:46:50;15.97;;;10.93;;
7541;SDS011;3812;50.006;8.230;2022-11-15T07:49:37;14.10;;;9.93;;
7541;SDS011;3812;50.006;8.230;2022-11-15T07:52:23;12.37;;;9.67;;
7541;SDS011;3812;50.006;8.230;2022-11-15T07:55:08;13.77;;;10.43;;
7541;SDS011;3812;50.006;8.230;2022-11-15T07:57:59;15.93;;;10.17;;
7541;SDS011;3812;50.006;8.230;2022-11-15T08:00:45;14.90;;;10.70;;
7541;SDS011;3812;50.006;8.230;2022-11-15T08:03:31;16.73;;;10.10;;
7541;SDS011;3812;50.006;8.230;2022-11-15T08:06:18;12.43;;;10.00;;
7541;SDS011;3812;50.006;8.230;2022-11-15T08:09:04;14.83;;;10.70;;
7541;SDS011;3812;50.006;8.230;2022-11-15T08:11:49;15.47;;;10.00;;
7541;SDS011;3812;50.006;8.230;2022-11-15T08:14:35;12.50;;;9.77;;
7541;SDS011;3812;50.006;8.230;2022-11-15T08:17:20;13.40;;;9.80;;
7541;SDS011;3812;50.006;8.230;2022-11-15T08:20:07;15.90;;;10.67;;
7541;SDS011;3812;50.006;8.230;2022-11-15T08:22:55;15.77;;;9.80;;
7541;SDS011;3812;50.006;8.230;2022-11-15T08:25:41;14.53;;;9.97;;
7541;SDS011;3812;50.006;8.230;2022-11-15T08:28:26;10.73;;;8.80;;
7541;SDS011;3812;50.006;8.230;2022-11-15T08:31:13;12.90;;;8.87;;
7541;SDS011;3812;50.006;8.230;2022-11-15T08:34:00;10.90;;;8.50;;
7541;SDS011;3812;50.006;8.230;2022-11-15T08:36:46;13.03;;;8.80;;
7541;SDS011;3812;50.006;8.230;2022-11-15T08:39:32;13.53;;;8.70;;
7541;SDS011;3812;50.006;8.230;2022-11-15T08:42:18;12.60;;;9.23;;
7541;SDS011;3812;50.006;8.230;2022-11-15T08:45:04;11.77;;;9.50;;
7541;SDS011;3812;50.006;8.230;2022-11-15T08:47:50;14.10;;;9.40;;
7541;SDS011;3812;50.006;8.230;2022-11-15T08:50:35;12.07;;;8.43;;
7541;SDS011;3812;50.006;8.230;2022-11-15T08:53:22;12.97;;;8.80;;
7541;SDS011;3812;50.006;8.230;2022-11-15T08:56:09;9.87;;;7.80;;
7541;SDS011;3812;50.006;8.230;2022-11-15T08:58:55;12.43;;;8.30;;
7541;SDS011;3812;50.006;8.230;2022-11-15T09:01:41;12.93;;;8.60;;
7541;SDS011;3812;50.006;8.230;2022-11-15T09:04:26;11.70;;;9.07;;
7541;SDS011;3812;50.006;8.230;2022-11-15T09:07:12;11.37;;;8.83;;
7541;SDS011;3812;50.006;8.230;2022-11-15T09:09:58;11.77;;;8.73;;
7541;SDS011;3812;50.006;8.230;2022-11-15T09:12:46;10.50;;;8.40;;
7541;SDS011;3812;50.006;8.230;2022-11-15T09:15:32;9.60;;;7.80;;
7541;SDS011;3812;50.006;8.230;2022-11-15T09:18:17;14.90;;;9.03;;
7541;SDS011;3812;50.006;8.230;2022-11-15T09:21:05;11.90;;;8.77;;
7541;SDS011;3812;50.006;8.230;2022-11-15T09:23:52;9.90;;;8.13;;
7541;SDS011;3812;50.006;8.230;2022-11-15T09:26:38;13.30;;;8.83;;
7541;SDS011;3812;50.006;8.230;2022-11-15T09:29:24;12.30;;;8.90;;
7541;SDS011;3812;50.006;8.230;2022-11-15T09:32:10;11.90;;;8.70;;
7541;SDS011;3812;50.006;8.230;2022-11-15T09:34:55;9.23;;;7.73;;
7541;SDS011;3812;50.006;8.230;2022-11-15T09:37:41;14.53;;;9.17;;
7541;SDS011;3812;50.006;8.230;2022-11-15T09:40:27;11.77;;;7.87;;
7541;SDS011;3812;50.006;8.230;2022-11-15T09:43:24;12.23;;;8.80;;
7541;SDS011;3812;50.006;8.230;2022-11-15T09:46:18;10.57;;;7.57;;
7541;SDS011;3812;50.006;8.230;2022-11-15T09:49:07;16.03;;;8.43;;
7541;SDS011;3812;50.006;8.230;2022-11-15T09:51:52;11.27;;;8.13;;
7541;SDS011;3812;50.006;8.230;2022-11-15T09:54:23;10.53;;;7.53;;
7541;SDS011;3812;50.006;8.230;2022-11-15T09:56:55;10.47;;;7.90;;
7541;SDS011;3812;50.006;8.230;2022-11-15T10:02:43;11.60;;;8.37;;
7541;SDS011;3812;50.006;8.230;2022-11-15T10:05:20;14.67;;;8.40;;
7541;SDS011;3812;50.006;8.230;2022-11-15T10:07:50;14.37;;;8.43;;
7541;SDS011;3812;50.006;8.230;2022-11-15T10:10:25;11.27;;;8.80;;
7541;SDS011;3812;50.006;8.230;2022-11-15T10:12:56;12.27;;;8.67;;
7541;SDS011;3812;50.006;8.230;2022-11-15T10:15:25;12.10;;;8.93;;
7541;SDS011;3812;50.006;8.230;2022-11-15T10:18:03;11.43;;;8.07;;
7541;SDS011;3812;50.006;8.230;2022-11-15T10:20:42;12.13;;;7.87;;
7541;SDS011;3812;50.006;8.230;2022-11-15T10:23:14;9.67;;;7.50;;
7541;SDS011;3812;50.006;8.230;2022-11-15T10:25:43;12.97;;;8.30;;
7541;SDS011;3812;50.006;8.230;2022-11-15T10:28:13;12.97;;;8.13;;
7541;SDS011;3812;50.006;8.230;2022-11-15T10:30:42;13.10;;;7.80;;
7541;SDS011;3812;50.006;8.230;2022-11-15T10:33:13;10.53;;;7.80;;
7541;SDS011;3812;50.006;8.230;2022-11-15T10:38:51;13.00;;;7.07;;
7541;SDS011;3812;50.006;8.230;2022-11-15T10:41:28;9.33;;;6.90;;
7541;SDS011;3812;50.006;8.230;2022-11-15T10:46:46;10.17;;;6.77;;
7541;SDS011;3812;50.006;8.230;2022-11-15T10:49:17;10.03;;;7.00;;
7541;SDS011;3812;50.006;8.230;2022-11-15T10:51:46;10.33;;;6.33;;
7541;SDS011;3812;50.006;8.230;2022-11-15T10:54:17;10.90;;;6.20;;
7541;SDS011;3812;50.006;8.230;2022-11-15T10:56:50;9.90;;;5.77;;
7541;SDS011;3812;50.006;8.230;2022-11-15T10:59:22;7.23;;;5.93;;
7541;SDS011;3812;50.006;8.230;2022-11-15T11:01:51;8.00;;;6.00;;
7541;SDS011;3812;50.006;8.230;2022-11-15T11:04:19;8.00;;;6.00;;
7541;SDS011;3812;50.006;8.230;2022-11-15T11:06:46;10.03;;;5.73;;
7541;SDS011;3812;50.006;8.230;2022-11-15T11:09:21;6.47;;;5.47;;
7541;SDS011;3812;50.006;8.230;2022-11-15T11:11:53;10.57;;;5.80;;
7541;SDS011;3812;50.006;8.230;2022-11-15T11:14:21;8.47;;;5.60;;
7541;SDS011;3812;50.006;8.230;2022-11-15T11:16:53;6.40;;;5.07;;
7541;SDS011;3812;50.006;8.230;2022-11-15T11:19:37;7.07;;;5.63;;
7541;SDS011;3812;50.006;8.230;2022-11-15T11:22:20;6.83;;;5.60;;
7541;SDS011;3812;50.006;8.230;2022-11-15T11:24:55;9.67;;;6.17;;
7541;SDS011;3812;50.006;8.230;2022-11-15T11:27:33;7.83;;;5.87;;
7541;SDS011;3812;50.006;8.230;2022-11-15T11:30:10;7.13;;;5.47;;
7541;SDS011;3812;50.006;8.230;2022-11-15T11:32:54;9.10;;;5.90;;
7541;SDS011;3812;50.006;8.230;2022-11-15T11:35:29;7.43;;;5.63;;
7541;SDS011;3812;50.006;8.230;2022-11-15T11:38:05;8.13;;;6.23;;
7541;SDS011;3812;50.006;8.230;2022-11-15T11:40:47;8.97;;;6.17;;
7541;SDS011;3812;50.006;8.230;2022-11-15T11:43:26;8.93;;;5.93;;
7541;SDS011;3812;50.006;8.230;2022-11-15T11:46:10;8.10;;;6.37;;
7541;SDS011;3812;50.006;8.230;2022-11-15T11:48:50;8.07;;;6.03;;
7541;SDS011;3812;50.006;8.230;2022-11-15T11:51:26;7.23;;;5.77;;
7541;SDS011;3812;50.006;8.230;2022-11-15T11:53:57;10.90;;;6.33;;
7541;SDS011;3812;50.006;8.230;2022-11-15T11:56:31;9.73;;;6.07;;
7541;SDS011;3812;50.006;8.230;2022-11-15T11:59:00;7.50;;;5.50;;
7541;SDS011;3812;50.006;8.230;2022-11-15T12:01:34;8.23;;;5.60;;
7541;SDS011;3812;50.006;8.230;2022-11-15T12:04:08;6.97;;;4.90;;
7541;SDS011;3812;50.006;8.230;2022-11-15T12:06:45;7.37;;;5.07;;
7541;SDS011;3812;50.006;8.230;2022-11-15T12:09:16;7.50;;;4.70;;
7541;SDS011;3812;50.006;8.230;2022-11-15T12:11:49;6.23;;;5.10;;
7541;SDS011;3812;50.006;8.230;2022-11-15T12:14:24;7.03;;;5.47;;
7541;SDS011;3812;50.006;8.230;2022-11-15T12:16:56;6.10;;;4.70;;
7541;SDS011;3812;50.006;8.230;2022-11-15T12:19:24;7.57;;;5.17;;
7541;SDS011;3812;50.006;8.230;2022-11-15T12:21:54;7.80;;;5.30;;
7541;SDS011;3812;50.006;8.230;2022-11-15T12:24:28;6.90;;;4.70;;
7541;SDS011;3812;50.006;8.230;2022-11-15T12:27:00;6.47;;;5.20;;
7541;SDS011;3812;50.006;8.230;2022-11-15T12:29:33;7.10;;;5.20;;
7541;SDS011;3812;50.006;8.230;2022-11-15T12:32:04;5.00;;;4.50;;
7541;SDS011;3812;50.006;8.230;2022-11-15T12:34:40;6.70;;;4.93;;
7541;SDS011;3812;50.006;8.230;2022-11-15T12:40:19;6.33;;;4.33;;
7541;SDS011;3812;50.006;8.230;2022-11-15T12:43:02;8.23;;;4.50;;
7541;SDS011;3812;50.006;8.230;2022-11-15T12:45:32;7.23;;;5.20;;
7541;SDS011;3812;50.006;8.230;2022-11-15T12:51:03;5.90;;;4.23;;
7541;SDS011;3812;50.006;8.230;2022-11-15T12:53:31;6.00;;;5.07;;
7541;SDS011;3812;50.006;8.230;2022-11-15T12:56:19;6.10;;;4.77;;
7541;SDS011;3812;50.006;8.230;2022-11-15T12:58:49;7.77;;;4.27;;
7541;SDS011;3812;50.006;8.230;2022-11-15T13:04:27;6.57;;;4.60;;
7541;SDS011;3812;50.006;8.230;2022-11-15T13:06:58;6.37;;;4.23;;
7541;SDS011;3812;50.006;8.230;2022-11-15T13:15:31;5.40;;;4.07;;
7541;SDS011;3812;50.006;8.230;2022-11-15T13:18:29;7.17;;;4.60;;
7541;SDS011;3812;50.006;8.230;2022-11-15T13:21:02;6.57;;;3.87;;
7541;SDS011;3812;50.006;8.230;2022-11-15T13:23:53;4.93;;;4.10;;
7541;SDS011;3812;50.006;8.230;2022-11-15T13:26:21;5.33;;;4.10;;
7541;SDS011;3812;50.006;8.230;2022-11-15T13:28:51;6.27;;;4.30;;
7541;SDS011;3812;50.006;8.230;2022-11-15T13:31:24;6.60;;;4.23;;
7541;SDS011;3812;50.006;8.230;2022-11-15T13:33:55;6.23;;;4.40;;
7541;SDS011;3812;50.006;8.230;2022-11-15T13:36:27;5.17;;;4.27;;
7541;SDS011;3812;50.006;8.230;2022-11-15T13:38:57;6.23;;;4.90;;
7541;SDS011;3812;50.006;8.230;2022-11-15T13:41:26;5.87;;;4.50;;
7541;SDS011;3812;50.006;8.230;2022-11-15T13:43:56;4.67;;;4.03;;
7541;SDS011;3812;50.006;8.230;2022-11-15T13:46:24;5.93;;;4.67;;
7541;SDS011;3812;50.006;8.230;2022-11-15T13:48:53;6.60;;;4.23;;
7541;SDS011;3812;50.006;8.230;2022-11-15T13:51:24;6.40;;;4.03;;
7541;SDS011;3812;50.006;8.230;2022-11-15T13:53:58;5.13;;;4.13;;
7541;SDS011;3812;50.006;8.230;2022-11-15T13:56:28;7.90;;;4.30;;
7541;SDS011;3812;50.006;8.230;2022-11-15T13:58:58;5.53;;;4.03;;
7541;SDS011;3812;50.006;8.230;2022-11-15T14:01:27;5.30;;;4.10;;
7541;SDS011;3812;50.006;8.230;2022-11-15T14:03:59;6.93;;;4.67;;
7541;SDS011;3812;50.006;8.230;2022-11-15T14:06:28;5.10;;;3.97;;
7541;SDS011;3812;50.006;8.230;2022-11-15T14:09:00;5.83;;;4.30;;
7541;SDS011;3812;50.006;8.230;2022-11-15T14:11:50;5.00;;;4.40;;
7541;SDS011;3812;50.006;8.230;2022-11-15T14:14:20;6.37;;;4.60;;
7541;SDS011;3812;50.006;8.230;2022-11-15T14:16:49;5.30;;;4.17;;
7541;SDS011;3812;50.006;8.230;2022-11-15T14:19:35;6.83;;;3.80;;
7541;SDS011;3812;50.006;8.230;2022-11-15T14:22:08;5.67;;;4.03;;
7541;SDS011;3812;50.006;8.230;2022-11-15T14:24:47;4.87;;;4.00;;
7541;SDS011;3812;50.006;8.230;2022-11-15T14:27:29;5.97;;;3.80;;
7541;SDS011;3812;50.006;8.230;2022-11-15T14:29:57;6.43;;;3.83;;
7541;SDS011;3812;50.006;8.230;2022-11-15T14:32:25;5.60;;;3.97;;
7541;SDS011;3812;50.006;8.230;2022-11-15T14:34:54;5.60;;;4.07;;
7541;SDS011;3812;50.006;8.230;2022-11-15T14:37:23;7.47;;;4.80;;
7541;SDS011;3812;50.006;8.230;2022-11-15T14:39:52;6.53;;;4.20;;
7541;SDS011;3812;50.006;8.230;2022-11-15T14:42:20;6.67;;;4.07;;
7541;SDS011;3812;50.006;8.230;2022-11-15T14:44:48;5.03;;;4.17;;
7541;SDS011;3812;50.006;8.230;2022-11-15T14:47:17;5.57;;;3.70;;
7541;SDS011;3812;50.006;8.230;2022-11-15T14:49:44;6.37;;;3.73;;
7541;SDS011;3812;50.006;8.230;2022-11-15T14:52:16;5.83;;;4.47;;
7541;SDS011;3812;50.006;8.230;2022-11-15T14:54:49;5.20;;;3.60;;
7541;SDS011;3812;50.006;8.230;2022-11-15T14:57:17;4.97;;;3.83;;
7541;SDS011;3812;50.006;8.230;2022-11-15T14:59:44;5.43;;;3.90;;
7541;SDS011;3812;50.006;8.230;2022-11-15T15:02:13;4.90;;;4.10;;
7541;SDS011;3812;50.006;8.230;2022-11-15T15:04:45;7.50;;;4.17;;
7541;SDS011;3812;50.006;8.230;2022-11-15T15:07:12;5.17;;;4.17;;
7541;SDS011;3812;50.006;8.230;2022-11-15T15:09:39;8.13;;;4.50;;
7541;SDS011;3812;50.006;8.230;2022-11-15T15:12:10;7.93;;;4.97;;
7541;SDS011;3812;50.006;8.230;2022-11-15T15:14:42;6.83;;;4.50;;
7541;SDS011;3812;50.006;8.230;2022-11-15T15:17:09;7.53;;;4.23;;
7541;SDS011;3812;50.006;8.230;2022-11-15T15:19:38;7.07;;;4.60;;
7541;SDS011;3812;50.006;8.230;2022-11-15T15:22:05;8.23;;;5.17;;
7541;SDS011;3812;50.006;8.230;2022-11-15T15:24:35;6.47;;;4.80;;
7541;SDS011;3812;50.006;8.230;2022-11-15T15:27:02;6.97;;;4.70;;
7541;SDS011;3812;50.006;8.230;2022-11-15T15:29:29;7.27;;;5.10;;
7541;SDS011;3812;50.006;8.230;2022-11-15T15:31:56;6.67;;;4.87;;
7541;SDS011;3812;50.006;8.230;2022-11-15T15:34:23;6.60;;;4.80;;
7541;SDS011;3812;50.006;8.230;2022-11-15T15:37:04;6.23;;;4.73;;
7541;SDS011;3812;50.006;8.230;2022-11-15T15:39:33;8.50;;;5.63;;
7541;SDS011;3812;50.006;8.230;2022-11-15T15:42:00;9.00;;;6.30;;
7541;SDS011;3812;50.006;8.230;2022-11-15T15:44:29;8.53;;;4.73;;
7541;SDS011;3812;50.006;8.230;2022-11-15T15:46:56;7.80;;;5.40;;
7541;SDS011;3812;50.006;8.230;2022-11-15T15:49:23;6.40;;;5.03;;
7541;SDS011;3812;50.006;8.230;2022-11-15T15:51:50;6.17;;;4.70;;
7541;SDS011;3812;50.006;8.230;2022-11-15T15:54:19;8.93;;;5.80;;
7541;SDS011;3812;50.006;8.230;2022-11-15T15:56:46;9.57;;;6.03;;
7541;SDS011;3812;50.006;8.230;2022-11-15T15:59:13;7.73;;;5.47;;
7541;SDS011;3812;50.006;8.230;2022-11-15T16:01:40;7.93;;;5.60;;
7541;SDS011;3812;50.006;8.230;2022-11-15T16:04:07;6.17;;;5.07;;
7541;SDS011;3812;50.006;8.230;2022-11-15T16:06:35;8.40;;;5.17;;
7541;SDS011;3812;50.006;8.230;2022-11-15T16:09:04;8.63;;;4.53;;
7541;SDS011;3812;50.006;8.230;2022-11-15T16:11:33;6.57;;;4.93;;
7541;SDS011;3812;50.006;8.230;2022-11-15T16:14:00;8.37;;;4.90;;
7541;SDS011;3812;50.006;8.230;2022-11-15T16:16:27;7.67;;;4.63;;
7541;SDS011;3812;50.006;8.230;2022-11-15T16:18:54;5.40;;;4.90;;
7541;SDS011;3812;50.006;8.230;2022-11-15T16:21:21;7.20;;;4.80;;
7541;SDS011;3812;50.006;8.230;2022-11-15T16:23:48;6.50;;;4.90;;
7541;SDS011;3812;50.006;8.230;2022-11-15T16:26:18;6.63;;;5.57;;
7541;SDS011;3812;50.006;8.230;2022-11-15T16:28:49;7.90;;;5.27;;
7541;SDS011;3812;50.006;8.230;2022-11-15T16:31:16;6.37;;;5.00;;
7541;SDS011;3812;50.006;8.230;2022-11-15T16:33:45;7.47;;;5.43;;
7541;SDS011;3812;50.006;8.230;2022-11-15T16:36:15;5.73;;;5.13;;
7541;SDS011;3812;50.006;8.230;2022-11-15T16:38:45;7.77;;;5.00;;
7541;SDS011;3812;50.006;8.230;2022-11-15T16:41:12;6.13;;;4.67;;
7541;SDS011;3812;50.006;8.230;2022-11-15T16:43:40;8.00;;;5.13;;
7541;SDS011;3812;50.006;8.230;2022-11-15T16:46:12;7.80;;;5.37;;
7541;SDS011;3812;50.006;8.230;2022-11-15T16:48:41;7.90;;;5.93;;
7541;SDS011;3812;50.006;8.230;2022-11-15T16:51:09;9.30;;;5.57;;
7541;SDS011;3812;50.006;8.230;2022-11-15T16:53:36;7.93;;;5.70;;